Pineville, MO

3:04 PM CST on December 17, 2014 (GMT -0600)
Rogers Municipal-Carter | Change Station
CLOSE
Current Station
Airport
Location: Rogers,
Elevation: 1358 ft
Nearby Weather Stations
Active Advisory: Winter Weather Advisory Active Notice: Public Information Statement

Elev 1358 ft 36.37 °N, 94.11 °W | Updated 7 minutes ago

Rain
Rain
34 °F
Feels Like 27 °F
N
8
Wind Variable Wind from ESE

Today
High -- | Low -- °F
--% Chance of Precip.
Yesterday
High -- | Low -- °F
Precip. -- in
7:23 AM 5:03 PM
Waning Crescent, 20% visible
Pressure 30.25 in
Visibility 10.0 miles
Clouds Overcast 5000 ft
Windchill 27 °F
Dew Point 32 °F
Humidity 92%
Rainfall 0.04 in
Snow Depth Not available.
UV 0 out of 12
Pollen 3.60 out of 12
Air Quality Not available.
Flu Activity Not available.
METAR KROG 172057Z 11007KT 10SM -RA OVC050 01/00 A3021 RMK AO2 SLP241 P0001 60004 T00110000 56031

More Conditions Fewer Conditions

Pressure 30.25 in
Visibility 10.0 miles
Clouds Overcast 5000 ft
Windchill 27 °F
Dew Point 32 °F
Humidity 92%
Rainfall 0.04 in
Snow Depth Not available.
UV 0 out of 12
Pollen 3.60 out of 12
Air Quality Not available.
Flu Activity Not available.
METAR KROG 172057Z 11007KT 10SM -RA OVC050 01/00 A3021 RMK AO2 SLP241 P0001 60004 T00110000 56031

More Conditions Fewer Conditions

10-Day Weather Forecast

Almanac

Astronomy

Dec. 17, 2014 Rise Set
Actual Time
Civil Twilight
Nautical Twilight
Astronomical Twilight
Moon
Length of Visible Light
Length of Day
Tomorrow will be .
, % of the Moon is Illuminated

Today's Extremes

State Highs State Lows

Community

WunderPhotos

Upload Photos

1,778,803 photos uploaded!

WunderBlogs® & News

Nearby

Air Quality

  Air Quality AQ Index Pollutant
Not available.

Snow Depth

Station Depth Elevation

Earthquake Activity

City Distance Mag. Time & Date
Minimum magnitude displayed is 2.5.

Coastal Water Temperatures

Place Temperature

Nearby Weather Stations